Durkee, Oregon
Current Conditions -  °F | °C
As of 9:53 PM on Sunday 25 Jan 2015 (Local Time) from KBKE Reporting Station
Clear Clear  
Wind Chill: 30°   Ceiling: Unl
Heat Index: 30°   Visibility: 8mi
Dew Point: 29°   Wind: 0mph
Humidity: 96%   Direction: NA
Pressure: 30.35"   Gusts: NA
Location:  44.58°N, 117.46°W
Report Text: KBKE 260553Z AUTO 00000KT 8SM CLR M01/M02 A3035 RMK AO2 SLP303 T10111017 10044 21028 55001 TSNO
Loading
Personal Weather Stations






























Interactive Weather Map New forecast layout! Learn more

10-Day Weather Forecast

Advertisements
Track Severe Weather on mobile